createdAt,value
2023-02-03T00:28:28.503Z,101847.35
2023-02-03T00:32:50.586Z,101831.35
2023-02-03T00:37:13.131Z,101824.39
2023-02-03T00:41:43.008Z,101799.69
2023-02-03T01:06:33.507Z,101770.73
2023-02-03T01:10:46.727Z,101765.67
2023-02-03T01:15:12.531Z,101760.45
2023-02-03T01:41:03.090Z,101675.00
2023-02-03T01:45:40.878Z,101659.32
2023-02-03T01:50:09.910Z,101648.33
2023-02-03T01:54:38.747Z,101649.03
2023-02-03T01:59:08.856Z,101640.32
2023-02-03T02:25:06.769Z,101580.65
2023-02-03T02:29:54.036Z,101567.03
2023-02-03T02:34:36.155Z,101571.75
2023-02-03T02:39:09.068Z,101559.88
2023-02-03T03:00:28.873Z,101505.42
2023-02-03T03:04:58.285Z,101497.41
2023-02-03T03:31:32.571Z,101461.93
2023-02-03T03:36:01.850Z,101438.89
2023-02-03T03:40:35.364Z,101416.21
2023-02-03T04:02:41.381Z,101349.31
2023-02-03T04:07:11.215Z,101345.11
2023-02-03T04:11:22.056Z,101331.88
2023-02-03T04:15:45.550Z,101326.96
2023-02-03T04:20:03.838Z,101306.23
2023-02-03T04:28:45.207Z,101298.70
2023-02-03T04:45:42.128Z,101237.70
2023-02-03T04:54:06.195Z,101207.74
2023-02-03T04:58:38.008Z,101186.50
2023-02-03T05:03:08.752Z,101180.61
2023-02-03T05:07:32.490Z,101161.27
2023-02-03T05:16:23.014Z,101124.73
2023-02-03T05:46:47.288Z,101027.84
2023-02-03T05:51:07.855Z,101012.73
2023-02-03T05:55:37.200Z,100996.90
2023-02-03T06:00:06.628Z,100975.67
2023-02-03T06:04:37.066Z,100957.56
2023-02-03T06:36:05.421Z,100869.49
2023-02-03T06:40:27.010Z,100848.20
2023-02-03T06:44:56.635Z,100832.48
2023-02-03T06:49:26.784Z,100817.79
2023-02-03T07:09:56.846Z,100756.86
2023-02-03T07:14:11.699Z,100737.96
2023-02-03T07:18:46.288Z,100722.21
2023-02-03T07:23:03.676Z,100710.46
2023-02-03T07:27:23.593Z,100690.68
2023-02-03T07:31:34.856Z,100685.00
2023-02-03T07:35:36.656Z,100665.55
2023-02-03T07:39:25.301Z,100658.29
2023-02-03T07:43:44.226Z,100651.42
2023-02-03T07:47:35.888Z,100638.98
2023-02-03T07:56:26.612Z,100608.27
2023-02-03T08:00:23.980Z,100598.58
2023-02-03T08:08:25.999Z,100576.92
2023-02-03T08:48:37.669Z,100446.31
2023-02-03T08:53:07.310Z,100436.48
2023-02-03T08:57:16.275Z,100424.17
2023-02-03T09:01:24.988Z,100401.00
2023-02-03T09:05:01.235Z,100393.37
2023-02-03T09:09:59.475Z,100377.73
2023-02-03T09:13:46.113Z,100370.18
2023-02-03T09:17:57.939Z,100367.57
2023-02-03T09:21:35.803Z,100359.91
2023-02-03T09:25:50.499Z,100355.51
2023-02-03T09:29:30.909Z,100350.84
2023-02-03T09:32:43.744Z,100348.36
2023-02-03T09:36:18.287Z,100339.19
2023-02-03T09:39:47.821Z,100341.66
2023-02-03T09:43:46.049Z,100328.25
2023-02-03T09:47:41.581Z,100315.92
2023-02-03T09:50:41.973Z,100309.03
2023-02-03T09:54:16.924Z,100310.60
2023-02-03T09:58:09.194Z,100307.87
2023-02-03T10:01:49.131Z,100300.24
2023-02-03T10:06:13.104Z,100297.41
2023-02-03T10:10:13.249Z,100282.65
2023-02-03T10:13:24.253Z,100280.58
2023-02-03T10:17:16.623Z,100276.00
2023-02-03T10:21:30.582Z,100278.52
2023-02-03T10:25:29.387Z,100273.48
2023-02-03T10:28:53.184Z,100275.73
2023-02-03T10:31:43.353Z,100268.30
2023-02-03T10:35:06.216Z,100276.45
2023-02-03T10:39:05.472Z,100272.95
2023-02-03T10:42:25.440Z,100272.73
2023-02-03T10:45:22.377Z,100269.34
2023-02-03T10:49:04.205Z,100276.95
2023-02-03T10:52:52.969Z,100290.48
2023-02-03T10:57:05.167Z,100304.98
2023-02-03T11:00:51.376Z,100289.55
2023-02-03T11:05:08.858Z,100276.81
2023-02-03T11:09:02.975Z,100280.79
2023-02-03T11:12:50.240Z,100288.64
2023-02-03T11:16:47.418Z,100294.45
2023-02-03T11:21:04.284Z,100285.00
2023-02-03T11:25:16.216Z,100279.62
2023-02-03T11:29:08.343Z,100270.81
2023-02-03T11:33:13.869Z,100272.34
2023-02-03T11:37:09.917Z,100271.20
2023-02-03T11:41:06.344Z,100284.89
2023-02-03T11:44:50.497Z,100277.93
2023-02-03T11:52:20.837Z,100283.52
2023-02-03T12:09:44.231Z,100298.11
2023-02-03T13:05:18.068Z,100312.84
2023-02-03T13:09:37.117Z,100330.35
2023-02-03T13:13:42.410Z,100328.49
2023-02-03T13:17:57.860Z,100327.95
2023-02-03T13:22:11.723Z,100322.36
2023-02-03T13:26:31.568Z,100325.30
2023-02-03T13:29:09.609Z,100340.73
2023-02-03T14:16:56.426Z,100368.02
2023-02-03T14:20:56.742Z,100374.10
2023-02-03T14:25:14.175Z,100378.19
2023-02-03T14:29:31.336Z,100381.29
2023-02-03T14:55:52.442Z,100419.61
2023-02-03T15:00:28.904Z,100418.20
2023-02-03T15:05:04.434Z,100431.49
2023-02-03T15:09:26.229Z,100442.90
2023-02-03T15:14:06.889Z,100438.96
2023-02-03T15:18:18.288Z,100445.52
2023-02-03T15:22:26.666Z,100448.23
2023-02-03T15:26:55.880Z,100447.39
2023-02-03T15:31:25.448Z,100446.39
2023-02-03T16:06:05.711Z,100482.98
2023-02-03T16:10:34.400Z,100481.91
2023-02-03T16:15:14.829Z,100490.02
2023-02-03T16:28:55.752Z,100504.91
2023-02-03T17:35:33.385Z,100566.65
2023-02-03T17:56:52.300Z,100581.95
2023-02-03T18:04:57.520Z,100589.02
2023-02-03T18:09:09.111Z,100599.06
2023-02-03T18:13:11.150Z,100607.04
2023-02-03T18:16:47.228Z,100616.23
2023-02-03T18:20:56.996Z,100623.34
2023-02-03T18:59:42.568Z,100686.58
2023-02-03T19:03:17.058Z,100689.30
2023-02-03T19:06:47.470Z,100698.87
2023-02-03T19:10:00.798Z,100710.05
2023-02-03T19:13:40.902Z,100714.97
2023-02-03T19:17:40.425Z,100720.03
2023-02-03T19:22:24.915Z,100728.23
2023-02-03T19:26:40.278Z,100755.73
2023-02-03T19:31:07.548Z,100774.38
2023-02-03T19:35:08.813Z,100769.41
2023-02-03T19:39:18.169Z,100768.74
2023-02-03T19:43:09.322Z,100785.97
2023-02-03T19:46:40.929Z,100784.28
2023-02-03T19:50:32.029Z,100786.09
2023-02-03T19:55:03.203Z,100802.02
2023-02-03T19:58:46.095Z,100795.67
2023-02-03T20:02:04.073Z,100809.02
2023-02-03T20:05:17.638Z,100827.39
2023-02-03T20:08:43.993Z,100836.31
2023-02-03T20:13:02.015Z,100854.71
2023-02-03T20:17:22.341Z,100868.39
2023-02-03T20:21:36.489Z,100891.25
2023-02-03T20:59:51.148Z,100998.89
2023-02-03T21:03:08.744Z,101013.97
2023-02-03T21:07:33.400Z,101026.08
2023-02-03T21:16:20.466Z,101049.74
2023-02-03T21:20:28.450Z,101049.89
2023-02-03T21:24:42.865Z,101075.48
2023-02-03T21:28:47.850Z,101108.69
2023-02-03T21:33:07.663Z,101121.86
2023-02-03T21:37:42.332Z,101141.79
2023-02-03T21:41:59.281Z,101160.83
2023-02-03T22:03:34.463Z,101262.11
2023-02-03T22:07:10.461Z,101288.55
2023-02-03T22:10:41.926Z,101303.02
2023-02-03T22:15:01.293Z,101330.09
2023-02-03T22:19:35.682Z,101346.76
2023-02-03T22:23:35.578Z,101370.52
2023-02-03T22:27:04.296Z,101390.80
2023-02-03T22:31:00.376Z,101395.50
2023-02-03T22:34:16.432Z,101423.13
2023-02-03T22:38:29.418Z,101454.45
2023-02-03T22:42:43.087Z,101468.99
2023-02-03T23:36:07.678Z,101759.31
2023-02-03T23:40:30.104Z,101790.89
2023-02-03T23:44:19.871Z,101808.17
2023-02-03T23:48:06.958Z,101820.92
2023-02-03T23:52:26.621Z,101840.98
2023-02-03T23:56:55.697Z,101858.75
